sensor_id;sensor_type;location;lat;lon;timestamp;pressure;altitude;pressure_sealevel;temperature;humidity
77706;BME280;66874;45.274;5.880;2023-05-27T00:00:05;99194.53;;;17.67;68.02
77706;BME280;66874;45.274;5.880;2023-05-27T00:02:31;99199.19;;;17.62;68.27
77706;BME280;66874;45.274;5.880;2023-05-27T00:04:57;99193.25;;;17.56;68.13
77706;BME280;66874;45.274;5.880;2023-05-27T00:07:22;99198.66;;;17.53;68.52
77706;BME280;66874;45.274;5.880;2023-05-27T00:09:47;99200.59;;;17.50;68.37
77706;BME280;66874;45.274;5.880;2023-05-27T00:12:13;99200.66;;;17.48;68.47
77706;BME280;66874;45.274;5.880;2023-05-27T00:14:38;99198.94;;;17.47;68.80
77706;BME280;66874;45.274;5.880;2023-05-27T00:17:04;99199.88;;;17.46;68.84
77706;BME280;66874;45.274;5.880;2023-05-27T00:19:30;99195.66;;;17.42;69.14
77706;BME280;66874;45.274;5.880;2023-05-27T00:21:56;99202.78;;;17.40;69.11
77706;BME280;66874;45.274;5.880;2023-05-27T00:24:21;99197.63;;;17.37;69.29
77706;BME280;66874;45.274;5.880;2023-05-27T00:26:47;99202.22;;;17.33;69.28
77706;BME280;66874;45.274;5.880;2023-05-27T00:29:13;99196.13;;;17.31;69.21
77706;BME280;66874;45.274;5.880;2023-05-27T00:31:38;99197.97;;;17.29;69.38
77706;BME280;66874;45.274;5.880;2023-05-27T00:34:04;99197.09;;;17.29;69.62
77706;BME280;66874;45.274;5.880;2023-05-27T00:36:29;99196.38;;;17.25;69.61
77706;BME280;66874;45.274;5.880;2023-05-27T00:38:57;99192.25;;;17.20;69.56
77706;BME280;66874;45.274;5.880;2023-05-27T00:41:22;99192.38;;;17.17;69.80
77706;BME280;66874;45.274;5.880;2023-05-27T00:43:48;99194.38;;;17.12;69.95
77706;BME280;66874;45.274;5.880;2023-05-27T00:46:13;99189.22;;;17.08;70.02
77706;BME280;66874;45.274;5.880;2023-05-27T00:48:39;99189.47;;;17.02;70.03
77706;BME280;66874;45.274;5.880;2023-05-27T00:51:05;99182.59;;;16.98;70.16
77706;BME280;66874;45.274;5.880;2023-05-27T00:53:36;99183.53;;;16.97;70.22
77706;BME280;66874;45.274;5.880;2023-05-27T00:56:04;99175.72;;;16.94;70.22
77706;BME280;66874;45.274;5.880;2023-05-27T00:58:31;99173.28;;;16.90;70.27
77706;BME280;66874;45.274;5.880;2023-05-27T01:00:56;99174.34;;;16.86;70.57
77706;BME280;66874;45.274;5.880;2023-05-27T01:03:21;99177.97;;;16.83;70.60
77706;BME280;66874;45.274;5.880;2023-05-27T01:05:50;99171.84;;;16.82;70.47
77706;BME280;66874;45.274;5.880;2023-05-27T01:08:34;99189.44;;;16.83;70.65
77706;BME280;66874;45.274;5.880;2023-05-27T01:11:04;99182.34;;;16.84;70.70
77706;BME280;66874;45.274;5.880;2023-05-27T01:13:39;99173.56;;;16.83;70.77
77706;BME280;66874;45.274;5.880;2023-05-27T01:16:13;99163.00;;;16.83;70.86
77706;BME280;66874;45.274;5.880;2023-05-27T01:18:42;99175.41;;;16.81;70.94
77706;BME280;66874;45.274;5.880;2023-05-27T01:21:14;99173.00;;;16.75;71.21
77706;BME280;66874;45.274;5.880;2023-05-27T01:23:42;99174.97;;;16.70;71.24
77706;BME280;66874;45.274;5.880;2023-05-27T01:26:07;99173.50;;;16.63;71.18
77706;BME280;66874;45.274;5.880;2023-05-27T01:28:33;99171.06;;;16.58;71.49
77706;BME280;66874;45.274;5.880;2023-05-27T01:31:13;99163.34;;;16.54;71.57
77706;BME280;66874;45.274;5.880;2023-05-27T01:33:42;99166.97;;;16.51;71.71
77706;BME280;66874;45.274;5.880;2023-05-27T01:36:14;99173.16;;;16.50;71.72
77706;BME280;66874;45.274;5.880;2023-05-27T01:38:43;99167.94;;;16.49;71.82
77706;BME280;66874;45.274;5.880;2023-05-27T01:41:10;99160.09;;;16.47;71.77
77706;BME280;66874;45.274;5.880;2023-05-27T01:43:37;99161.06;;;16.45;71.74
77706;BME280;66874;45.274;5.880;2023-05-27T01:46:04;99162.06;;;16.42;71.80
77706;BME280;66874;45.274;5.880;2023-05-27T01:48:30;99163.03;;;16.40;72.06
77706;BME280;66874;45.274;5.880;2023-05-27T01:50:55;99163.25;;;16.35;72.02
77706;BME280;66874;45.274;5.880;2023-05-27T01:53:20;99159.75;;;16.34;72.17
77706;BME280;66874;45.274;5.880;2023-05-27T01:55:46;99158.03;;;16.33;72.12
77706;BME280;66874;45.274;5.880;2023-05-27T01:58:11;99160.78;;;16.30;72.25
77706;BME280;66874;45.274;5.880;2023-05-27T02:00:36;99164.41;;;16.28;72.26
77706;BME280;66874;45.274;5.880;2023-05-27T02:03:02;99161.78;;;16.28;72.28
77706;BME280;66874;45.274;5.880;2023-05-27T02:05:27;99158.34;;;16.26;72.34
77706;BME280;66874;45.274;5.880;2023-05-27T02:07:53;99161.88;;;16.25;72.13
77706;BME280;66874;45.274;5.880;2023-05-27T02:10:18;99162.94;;;16.21;72.15
77706;BME280;66874;45.274;5.880;2023-05-27T02:12:44;99162.16;;;16.19;72.33
77706;BME280;66874;45.274;5.880;2023-05-27T02:15:09;99159.56;;;16.17;72.26
77706;BME280;66874;45.274;5.880;2023-05-27T02:17:35;99158.72;;;16.17;72.36
77706;BME280;66874;45.274;5.880;2023-05-27T02:20:01;99156.06;;;16.17;72.58
77706;BME280;66874;45.274;5.880;2023-05-27T02:22:28;99161.41;;;16.15;72.63
77706;BME280;66874;45.274;5.880;2023-05-27T02:24:53;99165.88;;;16.13;72.27
77706;BME280;66874;45.274;5.880;2023-05-27T02:27:19;99168.72;;;16.08;72.88
77706;BME280;66874;45.274;5.880;2023-05-27T02:29:44;99169.69;;;16.06;72.76
77706;BME280;66874;45.274;5.880;2023-05-27T02:32:10;99167.19;;;16.03;73.05
77706;BME280;66874;45.274;5.880;2023-05-27T02:34:35;99173.44;;;16.00;73.18
77706;BME280;66874;45.274;5.880;2023-05-27T02:37:05;99162.94;;;15.99;73.11
77706;BME280;66874;45.274;5.880;2023-05-27T02:39:31;99167.34;;;15.98;72.96
77706;BME280;66874;45.274;5.880;2023-05-27T02:41:56;99167.44;;;15.97;73.00
77706;BME280;66874;45.274;5.880;2023-05-27T02:44:22;99156.94;;;15.95;73.01
77706;BME280;66874;45.274;5.880;2023-05-27T02:46:47;99159.63;;;15.94;73.21
77706;BME280;66874;45.274;5.880;2023-05-27T02:49:12;99166.78;;;15.90;73.26
77706;BME280;66874;45.274;5.880;2023-05-27T02:51:38;99167.81;;;15.88;73.18
77706;BME280;66874;45.274;5.880;2023-05-27T02:54:03;99168.75;;;15.85;73.35
77706;BME280;66874;45.274;5.880;2023-05-27T02:56:28;99172.38;;;15.82;73.41
77706;BME280;66874;45.274;5.880;2023-05-27T02:58:54;99171.63;;;15.79;73.41
77706;BME280;66874;45.274;5.880;2023-05-27T03:01:19;99163.78;;;15.77;73.42
77706;BME280;66874;45.274;5.880;2023-05-27T03:03:45;99170.88;;;15.75;73.63
77706;BME280;66874;45.274;5.880;2023-05-27T03:06:11;99169.28;;;15.71;73.62
77706;BME280;66874;45.274;5.880;2023-05-27T03:08:36;99178.13;;;15.70;73.72
77706;BME280;66874;45.274;5.880;2023-05-27T03:11:01;99173.81;;;15.68;73.71
77706;BME280;66874;45.274;5.880;2023-05-27T03:13:27;99175.66;;;15.64;73.65
77706;BME280;66874;45.274;5.880;2023-05-27T03:15:52;99177.59;;;15.60;73.81
77706;BME280;66874;45.274;5.880;2023-05-27T03:18:19;99177.72;;;15.57;73.76
77706;BME280;66874;45.274;5.880;2023-05-27T03:20:45;99180.44;;;15.54;73.95
77706;BME280;66874;45.274;5.880;2023-05-27T03:23:10;99175.28;;;15.51;74.02
77706;BME280;66874;45.274;5.880;2023-05-27T03:25:36;99183.28;;;15.50;74.12
77706;BME280;66874;45.274;5.880;2023-05-27T03:28:01;99187.72;;;15.48;74.11
77706;BME280;66874;45.274;5.880;2023-05-27T03:30:26;99186.00;;;15.47;74.26
77706;BME280;66874;45.274;5.880;2023-05-27T03:32:52;99188.66;;;15.47;74.21
77706;BME280;66874;45.274;5.880;2023-05-27T03:35:17;99183.47;;;15.44;74.25
77706;BME280;66874;45.274;5.880;2023-05-27T03:37:43;99189.84;;;15.38;74.50
77706;BME280;66874;45.274;5.880;2023-05-27T03:40:09;99183.75;;;15.36;74.60
77706;BME280;66874;45.274;5.880;2023-05-27T03:42:34;99189.16;;;15.33;74.66
77706;BME280;66874;45.274;5.880;2023-05-27T03:45:00;99185.66;;;15.32;74.91
77706;BME280;66874;45.274;5.880;2023-05-27T03:47:25;99188.34;;;15.31;74.71
77706;BME280;66874;45.274;5.880;2023-05-27T03:49:51;99189.22;;;15.31;74.84
77706;BME280;66874;45.274;5.880;2023-05-27T03:52:16;99184.88;;;15.30;74.88
77706;BME280;66874;45.274;5.880;2023-05-27T03:54:42;99184.91;;;15.29;74.94
77706;BME280;66874;45.274;5.880;2023-05-27T03:57:08;99190.25;;;15.27;74.86
77706;BME280;66874;45.274;5.880;2023-05-27T03:59:34;99186.78;;;15.25;75.05
77706;BME280;66874;45.274;5.880;2023-05-27T04:02:00;99180.72;;;15.23;75.12
77706;BME280;66874;45.274;5.880;2023-05-27T04:04:25;99181.66;;;15.22;74.87
77706;BME280;66874;45.274;5.880;2023-05-27T04:06:51;99181.66;;;15.22;75.31
77706;BME280;66874;45.274;5.880;2023-05-27T04:09:16;99181.75;;;15.19;75.25
77706;BME280;66874;45.274;5.880;2023-05-27T04:11:41;99180.94;;;15.17;75.13
77706;BME280;66874;45.274;5.880;2023-05-27T04:14:07;99183.63;;;15.16;75.19
77706;BME280;66874;45.274;5.880;2023-05-27T04:16:32;99181.00;;;15.16;75.18
77706;BME280;66874;45.274;5.880;2023-05-27T04:19:01;99180.94;;;15.17;75.46
77706;BME280;66874;45.274;5.880;2023-05-27T04:21:27;99182.72;;;15.17;75.55
77706;BME280;66874;45.274;5.880;2023-05-27T04:23:52;99178.38;;;15.16;75.62
77706;BME280;66874;45.274;5.880;2023-05-27T04:26:18;99181.94;;;15.14;75.62
77706;BME280;66874;45.274;5.880;2023-05-27T04:28:43;99174.06;;;15.13;75.55
77706;BME280;66874;45.274;5.880;2023-05-27T04:31:10;99174.22;;;15.08;75.88
77706;BME280;66874;45.274;5.880;2023-05-27T04:33:43;99179.56;;;15.07;75.97
77706;BME280;66874;45.274;5.880;2023-05-27T04:36:09;99186.59;;;15.06;75.96
77706;BME280;66874;45.274;5.880;2023-05-27T04:38:35;99182.19;;;15.07;76.23
77706;BME280;66874;45.274;5.880;2023-05-27T04:41:00;99190.03;;;15.08;76.01
77706;BME280;66874;45.274;5.880;2023-05-27T04:43:26;99193.53;;;15.09;76.23
77706;BME280;66874;45.274;5.880;2023-05-27T04:45:53;99189.00;;;15.12;76.11
77706;BME280;66874;45.274;5.880;2023-05-27T04:48:18;99195.88;;;15.17;76.38
77706;BME280;66874;45.274;5.880;2023-05-27T04:50:45;99192.19;;;15.22;76.43
77706;BME280;66874;45.274;5.880;2023-05-27T04:53:10;99192.81;;;15.29;76.26
77706;BME280;66874;45.274;5.880;2023-05-27T04:55:36;99197.88;;;15.35;76.27
77706;BME280;66874;45.274;5.880;2023-05-27T04:58:02;99191.56;;;15.39;76.14
77706;BME280;66874;45.274;5.880;2023-05-27T05:00:29;99195.91;;;15.40;76.22
77706;BME280;66874;45.274;5.880;2023-05-27T05:03:07;99199.28;;;15.44;76.35
77706;BME280;66874;45.274;5.880;2023-05-27T05:05:33;99200.88;;;15.49;76.45
77706;BME280;66874;45.274;5.880;2023-05-27T05:07:59;99205.91;;;15.55;76.39
77706;BME280;66874;45.274;5.880;2023-05-27T05:10:24;99209.25;;;15.60;76.29
77706;BME280;66874;45.274;5.880;2023-05-27T05:12:50;99207.25;;;15.67;76.14
77706;BME280;66874;45.274;5.880;2023-05-27T05:15:16;99207.94;;;15.72;76.15
77706;BME280;66874;45.274;5.880;2023-05-27T05:17:41;99203.38;;;15.76;76.26
77706;BME280;66874;45.274;5.880;2023-05-27T05:20:07;99214.66;;;15.81;76.10
77706;BME280;66874;45.274;5.880;2023-05-27T05:22:34;99214.41;;;15.87;76.02
77706;BME280;66874;45.274;5.880;2023-05-27T05:24:59;99216.75;;;15.95;76.34
77706;BME280;66874;45.274;5.880;2023-05-27T05:27:25;99205.97;;;16.01;76.03
77706;BME280;66874;45.274;5.880;2023-05-27T05:29:50;99211.06;;;16.05;75.82
77706;BME280;66874;45.274;5.880;2023-05-27T05:32:16;99208.22;;;16.10;75.74
77706;BME280;66874;45.274;5.880;2023-05-27T05:34:41;99199.25;;;16.14;75.65
77706;BME280;66874;45.274;5.880;2023-05-27T05:37:06;99211.50;;;16.17;75.49
77706;BME280;66874;45.274;5.880;2023-05-27T05:39:32;99210.53;;;16.19;75.41
77706;BME280;66874;45.274;5.880;2023-05-27T05:41:57;99209.53;;;16.22;75.56
77706;BME280;66874;45.274;5.880;2023-05-27T05:44:24;99202.28;;;16.27;75.44
77706;BME280;66874;45.274;5.880;2023-05-27T05:46:49;99206.44;;;16.32;75.44
77706;BME280;66874;45.274;5.880;2023-05-27T05:49:15;99208.91;;;16.37;75.50
77706;BME280;66874;45.274;5.880;2023-05-27T05:51:41;99209.59;;;16.42;75.18
77706;BME280;66874;45.274;5.880;2023-05-27T05:54:06;99205.09;;;16.44;75.13
77706;BME280;66874;45.274;5.880;2023-05-27T05:56:32;99215.53;;;16.47;74.97
77706;BME280;66874;45.274;5.880;2023-05-27T05:58:58;99211.84;;;16.51;74.68
77706;BME280;66874;45.274;5.880;2023-05-27T06:01:24;99211.53;;;16.59;75.08
77706;BME280;66874;45.274;5.880;2023-05-27T06:03:52;99206.00;;;16.65;74.77
77706;BME280;66874;45.274;5.880;2023-05-27T06:06:17;99206.66;;;16.70;74.43
77706;BME280;66874;45.274;5.880;2023-05-27T06:08:43;99196.78;;;16.75;74.46
77706;BME280;66874;45.274;5.880;2023-05-27T06:11:08;99204.47;;;16.81;74.28
77706;BME280;66874;45.274;5.880;2023-05-27T06:13:34;99205.06;;;16.88;74.27
77706;BME280;66874;45.274;5.880;2023-05-27T06:15:59;99200.38;;;16.95;74.30
77706;BME280;66874;45.274;5.880;2023-05-27T06:18:24;99197.47;;;17.01;74.22
77706;BME280;66874;45.274;5.880;2023-05-27T06:20:50;99206.13;;;17.04;74.07
77706;BME280;66874;45.274;5.880;2023-05-27T06:23:15;99207.63;;;17.10;74.00
77706;BME280;66874;45.274;5.880;2023-05-27T06:25:41;99197.00;;;17.12;73.85
77706;BME280;66874;45.274;5.880;2023-05-27T06:28:06;99187.03;;;17.18;73.79
77706;BME280;66874;45.274;5.880;2023-05-27T06:30:32;99188.63;;;17.22;73.85
77706;BME280;66874;45.274;5.880;2023-05-27T06:32:57;99186.53;;;17.29;73.59
77706;BME280;66874;45.274;5.880;2023-05-27T06:35:23;99191.56;;;17.35;73.50
77706;BME280;66874;45.274;5.880;2023-05-27T06:37:48;99186.91;;;17.40;73.40
77706;BME280;66874;45.274;5.880;2023-05-27T06:40:13;99184.00;;;17.46;73.36
77706;BME280;66874;45.274;5.880;2023-05-27T06:42:39;99182.81;;;17.53;73.21
77706;BME280;66874;45.274;5.880;2023-05-27T06:45:05;99178.16;;;17.58;73.13
77706;BME280;66874;45.274;5.880;2023-05-27T06:47:30;99180.56;;;17.63;73.17
77706;BME280;66874;45.274;5.880;2023-05-27T06:49:56;99178.59;;;17.68;73.05
77706;BME280;66874;45.274;5.880;2023-05-27T06:52:21;99178.28;;;17.74;72.91
77706;BME280;66874;45.274;5.880;2023-05-27T06:54:47;99174.47;;;17.81;72.74
77706;BME280;66874;45.274;5.880;2023-05-27T06:57:13;99182.84;;;17.91;72.53
77706;BME280;66874;45.274;5.880;2023-05-27T06:59:39;99178.31;;;17.93;72.23
77706;BME280;66874;45.274;5.880;2023-05-27T07:02:05;99177.34;;;17.96;71.88
77706;BME280;66874;45.274;5.880;2023-05-27T07:04:31;99181.47;;;18.01;71.81
77706;BME280;66874;45.274;5.880;2023-05-27T07:06:56;99171.44;;;18.08;71.68
77706;BME280;66874;45.274;5.880;2023-05-27T07:09:21;99166.53;;;18.18;71.52
77706;BME280;66874;45.274;5.880;2023-05-27T07:11:47;99162.84;;;18.22;71.48
77706;BME280;66874;45.274;5.880;2023-05-27T07:14:12;99162.63;;;18.26;71.46
77706;BME280;66874;45.274;5.880;2023-05-27T07:16:37;99159.59;;;18.34;71.09
77706;BME280;66874;45.274;5.880;2023-05-27T07:19:03;99159.28;;;18.40;71.12
77706;BME280;66874;45.274;5.880;2023-05-27T07:21:28;99157.78;;;18.52;70.51
77706;BME280;66874;45.274;5.880;2023-05-27T07:23:54;99157.50;;;18.58;70.45
77706;BME280;66874;45.274;5.880;2023-05-27T07:26:19;99156.25;;;18.65;70.19
77706;BME280;66874;45.274;5.880;2023-05-27T07:28:46;99146.16;;;18.73;70.11
77706;BME280;66874;45.274;5.880;2023-05-27T07:31:11;99146.63;;;18.82;69.85
77706;BME280;66874;45.274;5.880;2023-05-27T07:33:36;99148.88;;;18.89;69.62
77706;BME280;66874;45.274;5.880;2023-05-27T07:36:02;99142.22;;;18.98;69.55
77706;BME280;66874;45.274;5.880;2023-05-27T07:38:27;99135.63;;;19.07;69.59
77706;BME280;66874;45.274;5.880;2023-05-27T07:40:53;99132.56;;;19.14;69.28
77706;BME280;66874;45.274;5.880;2023-05-27T07:43:18;99132.22;;;19.20;69.04
77706;BME280;66874;45.274;5.880;2023-05-27T07:45:44;99137.03;;;19.30;68.92
77706;BME280;66874;45.274;5.880;2023-05-27T07:48:09;99137.47;;;19.38;68.84
77706;BME280;66874;45.274;5.880;2023-05-27T07:50:35;99133.47;;;19.46;68.54
77706;BME280;66874;45.274;5.880;2023-05-27T07:53:00;99132.19;;;19.54;68.72
77706;BME280;66874;45.274;5.880;2023-05-27T07:55:26;99128.19;;;19.62;68.18
77706;BME280;66874;45.274;5.880;2023-05-27T07:57:52;99124.44;;;19.66;68.17
77706;BME280;66874;45.274;5.880;2023-05-27T08:00:17;99125.28;;;19.67;67.80
77706;BME280;66874;45.274;5.880;2023-05-27T08:02:43;99114.34;;;19.73;67.85
77706;BME280;66874;45.274;5.880;2023-05-27T08:05:09;99111.84;;;19.86;67.83
77706;BME280;66874;45.274;5.880;2023-05-27T08:07:34;99100.72;;;19.95;67.63
77706;BME280;66874;45.274;5.880;2023-05-27T08:10:00;99104.72;;;20.02;67.78
77706;BME280;66874;45.274;5.880;2023-05-27T08:12:26;99094.88;;;20.04;67.43
77706;BME280;66874;45.274;5.880;2023-05-27T08:14:51;99088.16;;;20.13;67.02
77706;BME280;66874;45.274;5.880;2023-05-27T08:17:17;99087.56;;;20.23;67.08
77706;BME280;66874;45.274;5.880;2023-05-27T08:19:42;99089.41;;;20.37;67.14
77706;BME280;66874;45.274;5.880;2023-05-27T08:22:08;99080.09;;;20.44;66.78
77706;BME280;66874;45.274;5.880;2023-05-27T08:24:36;99084.94;;;20.54;66.13
77706;BME280;66874;45.274;5.880;2023-05-27T08:27:02;99091.09;;;20.54;66.18
77706;BME280;66874;45.274;5.880;2023-05-27T08:29:28;99077.34;;;20.62;66.26
77706;BME280;66874;45.274;5.880;2023-05-27T08:31:55;99077.75;;;20.70;65.70
77706;BME280;66874;45.274;5.880;2023-05-27T08:34:21;99069.19;;;20.79;65.80
77706;BME280;66874;45.274;5.880;2023-05-27T08:36:46;99070.28;;;20.91;65.57
77706;BME280;66874;45.274;5.880;2023-05-27T08:39:12;99063.06;;;21.07;65.56
77706;BME280;66874;45.274;5.880;2023-05-27T08:41:38;99067.72;;;21.18;64.95
77706;BME280;66874;45.274;5.880;2023-05-27T08:44:04;99062.94;;;21.23;64.80
77706;BME280;66874;45.274;5.880;2023-05-27T08:46:29;99058.38;;;21.25;64.64
77706;BME280;66874;45.274;5.880;2023-05-27T08:48:58;99047.47;;;21.30;64.54
77706;BME280;66874;45.274;5.880;2023-05-27T08:51:23;99042.03;;;21.45;64.65
77706;BME280;66874;45.274;5.880;2023-05-27T08:53:49;99045.25;;;21.51;64.33
77706;BME280;66874;45.274;5.880;2023-05-27T08:56:15;99047.31;;;21.60;64.22
77706;BME280;66874;45.274;5.880;2023-05-27T08:58:44;99049.28;;;21.70;64.17
77706;BME280;66874;45.274;5.880;2023-05-27T09:01:10;99039.94;;;21.78;64.30
77706;BME280;66874;45.274;5.880;2023-05-27T09:03:35;99034.22;;;21.84;63.64
77706;BME280;66874;45.274;5.880;2023-05-27T09:06:02;99026.00;;;21.87;63.69
77706;BME280;66874;45.274;5.880;2023-05-27T09:08:30;99029.97;;;21.94;63.44
77706;BME280;66874;45.274;5.880;2023-05-27T09:10:56;99023.28;;;22.01;63.02
77706;BME280;66874;45.274;5.880;2023-05-27T09:13:28;99021.44;;;22.16;63.51
77706;BME280;66874;45.274;5.880;2023-05-27T09:16:01;99016.78;;;22.32;63.27
77706;BME280;66874;45.274;5.880;2023-05-27T09:18:28;99021.59;;;22.40;62.82
77706;BME280;66874;45.274;5.880;2023-05-27T09:20:55;99014.03;;;22.47;62.53
77706;BME280;66874;45.274;5.880;2023-05-27T09:23:21;99007.53;;;22.51;62.34
77706;BME280;66874;45.274;5.880;2023-05-27T09:25:47;99010.63;;;22.57;62.51
77706;BME280;66874;45.274;5.880;2023-05-27T09:28:22;99002.94;;;22.65;62.06
77706;BME280;66874;45.274;5.880;2023-05-27T09:31:01;98997.19;;;22.72;61.92
77706;BME280;66874;45.274;5.880;2023-05-27T09:33:31;99001.75;;;22.82;62.33
77706;BME280;66874;45.274;5.880;2023-05-27T09:35:57;98994.00;;;22.92;61.48
77706;BME280;66874;45.274;5.880;2023-05-27T09:38:22;98992.34;;;23.02;60.93
77706;BME280;66874;45.274;5.880;2023-05-27T09:40:48;98992.34;;;23.15;60.80
77706;BME280;66874;45.274;5.880;2023-05-27T09:43:14;98985.69;;;23.33;60.35
77706;BME280;66874;45.274;5.880;2023-05-27T09:45:43;98977.91;;;23.54;59.77
77706;BME280;66874;45.274;5.880;2023-05-27T09:48:10;98974.88;;;23.72;59.88
77706;BME280;66874;45.274;5.880;2023-05-27T09:50:37;98978.72;;;23.92;59.12
77706;BME280;66874;45.274;5.880;2023-05-27T09:53:03;98974.09;;;24.18;58.30
77706;BME280;66874;45.274;5.880;2023-05-27T09:55:30;98967.09;;;24.39;57.97
77706;BME280;66874;45.274;5.880;2023-05-27T09:57:55;98964.69;;;24.70;57.36
77706;BME280;66874;45.274;5.880;2023-05-27T10:00:21;98958.59;;;24.90;56.51
77706;BME280;66874;45.274;5.880;2023-05-27T10:02:47;98964.94;;;25.12;55.72
77706;BME280;66874;45.274;5.880;2023-05-27T10:05:15;98956.88;;;25.34;55.10
77706;BME280;66874;45.274;5.880;2023-05-27T10:07:43;98956.94;;;25.55;53.68
77706;BME280;66874;45.274;5.880;2023-05-27T10:10:10;98951.53;;;25.66;53.06
77706;BME280;66874;45.274;5.880;2023-05-27T10:12:38;98957.56;;;25.91;53.23
77706;BME280;66874;45.274;5.880;2023-05-27T10:15:04;98947.59;;;26.14;52.90
77706;BME280;66874;45.274;5.880;2023-05-27T10:17:47;98951.09;;;26.35;52.40
77706;BME280;66874;45.274;5.880;2023-05-27T10:20:57;98951.06;;;26.46;52.16
77706;BME280;66874;45.274;5.880;2023-05-27T10:23:29;98947.97;;;26.82;51.07
77706;BME280;66874;45.274;5.880;2023-05-27T10:26:00;98946.66;;;27.07;50.53
77706;BME280;66874;45.274;5.880;2023-05-27T10:31:13;98938.72;;;27.65;50.11
77706;BME280;66874;45.274;5.880;2023-05-27T10:33:44;98936.50;;;27.80;49.39
77706;BME280;66874;45.274;5.880;2023-05-27T10:36:14;98930.38;;;27.97;49.32
77706;BME280;66874;45.274;5.880;2023-05-27T10:38:42;98929.50;;;28.26;48.76
77706;BME280;66874;45.274;5.880;2023-05-27T10:41:08;98922.94;;;28.47;47.85
77706;BME280;66874;45.274;5.880;2023-05-27T10:43:34;98926.00;;;28.62;46.96
77706;BME280;66874;45.274;5.880;2023-05-27T10:46:11;98919.34;;;28.66;46.95
77706;BME280;66874;45.274;5.880;2023-05-27T10:48:37;98916.84;;;28.83;47.40
77706;BME280;66874;45.274;5.880;2023-05-27T10:51:04;98922.88;;;29.04;46.61
77706;BME280;66874;45.274;5.880;2023-05-27T10:53:31;98916.91;;;29.10;45.89
77706;BME280;66874;45.274;5.880;2023-05-27T10:56:00;98917.63;;;29.30;45.93
77706;BME280;66874;45.274;5.880;2023-05-27T10:58:26;98908.25;;;29.52;45.84
77706;BME280;66874;45.274;5.880;2023-05-27T11:00:52;98905.00;;;29.84;45.24
77706;BME280;66874;45.274;5.880;2023-05-27T11:03:26;98905.31;;;29.99;44.64
77706;BME280;66874;45.274;5.880;2023-05-27T11:08:25;98897.94;;;30.27;44.14
77706;BME280;66874;45.274;5.880;2023-05-27T11:10:50;98892.00;;;30.50;43.91
77706;BME280;66874;45.274;5.880;2023-05-27T11:13:16;98894.72;;;30.58;43.17
77706;BME280;66874;45.274;5.880;2023-05-27T11:15:41;98889.06;;;30.69;43.05
77706;BME280;66874;45.274;5.880;2023-05-27T11:18:08;98882.88;;;30.77;42.59
77706;BME280;66874;45.274;5.880;2023-05-27T11:20:35;98884.59;;;30.94;42.67
77706;BME280;66874;45.274;5.880;2023-05-27T11:23:01;98882.81;;;31.11;42.09
77706;BME280;66874;45.274;5.880;2023-05-27T11:25:26;98870.41;;;31.34;41.98
77706;BME280;66874;45.274;5.880;2023-05-27T11:27:51;98868.03;;;31.40;41.74
77706;BME280;66874;45.274;5.880;2023-05-27T11:30:17;98865.19;;;31.33;41.46
77706;BME280;66874;45.274;5.880;2023-05-27T11:32:43;98866.53;;;31.45;41.50
77706;BME280;66874;45.274;5.880;2023-05-27T11:35:15;98865.00;;;31.51;41.07
77706;BME280;66874;45.274;5.880;2023-05-27T11:37:45;98860.94;;;31.55;41.17
77706;BME280;66874;45.274;5.880;2023-05-27T11:40:11;98862.66;;;31.80;40.57
77706;BME280;66874;45.274;5.880;2023-05-27T11:42:37;98857.91;;;32.15;41.03
77706;BME280;66874;45.274;5.880;2023-05-27T11:45:17;98868.84;;;32.46;39.84
77706;BME280;66874;45.274;5.880;2023-05-27T11:47:44;98849.97;;;32.69;38.98
77706;BME280;66874;45.274;5.880;2023-05-27T11:50:10;98842.34;;;32.73;38.20
77706;BME280;66874;45.274;5.880;2023-05-27T11:52:50;98845.25;;;32.71;38.48
77706;BME280;66874;45.274;5.880;2023-05-27T11:55:16;98839.28;;;32.76;38.08
77706;BME280;66874;45.274;5.880;2023-05-27T11:57:41;98830.28;;;33.15;38.50
77706;BME280;66874;45.274;5.880;2023-05-27T12:00:07;98832.81;;;33.39;38.14
77706;BME280;66874;45.274;5.880;2023-05-27T12:02:33;98819.06;;;33.49;38.06
77706;BME280;66874;45.274;5.880;2023-05-27T12:04:58;98819.16;;;33.33;38.23
77706;BME280;66874;45.274;5.880;2023-05-27T12:07:23;98823.63;;;33.71;37.78
77706;BME280;66874;45.274;5.880;2023-05-27T12:09:49;98816.19;;;34.03;37.13
77706;BME280;66874;45.274;5.880;2023-05-27T12:12:14;98818.06;;;34.03;36.71
77706;BME280;66874;45.274;5.880;2023-05-27T12:14:39;98818.44;;;33.99;36.94
77706;BME280;66874;45.274;5.880;2023-05-27T12:17:05;98815.66;;;33.85;36.52
77706;BME280;66874;45.274;5.880;2023-05-27T12:19:30;98807.19;;;33.50;36.82
77706;BME280;66874;45.274;5.880;2023-05-27T12:21:59;98808.91;;;32.89;37.40
77706;BME280;66874;45.274;5.880;2023-05-27T12:24:25;98793.41;;;32.74;37.96
77706;BME280;66874;45.274;5.880;2023-05-27T12:26:50;98792.66;;;32.57;38.04
77706;BME280;66874;45.274;5.880;2023-05-27T12:29:15;98790.69;;;32.74;38.52
77706;BME280;66874;45.274;5.880;2023-05-27T12:31:41;98785.28;;;33.28;37.88
77706;BME280;66874;45.274;5.880;2023-05-27T12:34:06;98784.75;;;33.71;36.42
77706;BME280;66874;45.274;5.880;2023-05-27T12:36:31;98771.78;;;33.81;36.42
77706;BME280;66874;45.274;5.880;2023-05-27T12:38:57;98763.31;;;33.46;36.33
77706;BME280;66874;45.274;5.880;2023-05-27T12:41:22;98772.03;;;33.34;36.77
77706;BME280;66874;45.274;5.880;2023-05-27T12:43:48;98763.31;;;32.92;36.86
77706;BME280;66874;45.274;5.880;2023-05-27T12:46:13;98760.31;;;32.95;37.34
77706;BME280;66874;45.274;5.880;2023-05-27T12:48:38;98755.94;;;32.55;37.35
77706;BME280;66874;45.274;5.880;2023-05-27T12:51:04;98759.34;;;32.49;37.60
77706;BME280;66874;45.274;5.880;2023-05-27T12:53:29;98751.41;;;32.47;37.92
77706;BME280;66874;45.274;5.880;2023-05-27T12:55:55;98746.75;;;32.95;37.63
77706;BME280;66874;45.274;5.880;2023-05-27T12:58:20;98746.91;;;32.94;37.32
77706;BME280;66874;45.274;5.880;2023-05-27T13:00:45;98735.53;;;33.21;36.95